Terminal Aerodrome Forecast
Issued by NWS Duluth, MN

Home | Current Version | Previous Version | Text Only | Print | Product List | Glossary On
Versions: 1 2 3 4 5 6 7 8 9 10 11 12 13 14 15 16 17 18 19 20 21 22 23 24 25 26
000
FTUS43 KDLH 231700 RRA
TAFINL
TAF
KINL 231742Z 2318/2418 09008KT P6SM VCSH BKN025 BKN040
     FM240100 11010KT P6SM VCSH SCT050 BKN120
     FM240700 11011KT P6SM VCSH BKN015 OVC040
     FM240900 12009KT 4SM -DZ BR VCSH OVC008=

USA.gov is the U.S. government's official web portal to all federal, state and local government web resources and services.